createdAt,value
2022-08-19T00:03:26.137Z,2.60
2022-08-19T00:08:27.945Z,3.15
2022-08-19T00:13:29.663Z,4.10
2022-08-19T00:18:32.810Z,3.90
2022-08-19T00:23:34.731Z,3.13
2022-08-19T00:28:37.098Z,3.47
2022-08-19T00:33:39.125Z,2.83
2022-08-19T00:38:41.035Z,3.25
2022-08-19T00:43:42.776Z,3.75
2022-08-19T00:48:44.570Z,2.90
2022-08-19T00:53:46.859Z,2.93
2022-08-19T00:58:48.674Z,2.70
2022-08-19T01:03:58.098Z,2.65
2022-08-19T01:09:01.060Z,3.28
2022-08-19T01:14:02.894Z,2.83
2022-08-19T01:19:16.517Z,3.20
2022-08-19T01:24:18.337Z,2.88
2022-08-19T01:29:20.168Z,2.88
2022-08-19T01:34:23.092Z,2.58
2022-08-19T01:39:25.791Z,2.70
2022-08-19T01:44:27.506Z,2.90
2022-08-19T01:49:29.258Z,2.77
2022-08-19T01:54:31.075Z,2.97
2022-08-19T01:59:33.970Z,3.15
2022-08-19T02:04:36.688Z,3.17
2022-08-19T02:09:38.780Z,2.30
2022-08-19T02:14:40.529Z,2.80
2022-08-19T02:19:42.257Z,2.88
2022-08-19T02:24:43.977Z,2.90
2022-08-19T02:29:48.181Z,2.63
2022-08-19T02:34:49.911Z,2.70
2022-08-19T02:39:51.663Z,3.20
2022-08-19T02:44:54.542Z,2.67
2022-08-19T02:49:56.243Z,2.70
2022-08-19T02:54:58.008Z,2.63
2022-08-19T03:00:00.197Z,2.80
2022-08-19T03:05:04.080Z,2.35
2022-08-19T03:10:06.852Z,2.67
2022-08-19T03:15:09.935Z,3.00
2022-08-19T03:20:11.810Z,2.80
2022-08-19T03:25:13.670Z,2.47
2022-08-19T03:30:15.574Z,2.53
2022-08-19T03:35:24.908Z,2.30
2022-08-19T03:40:27.240Z,1.90
2022-08-19T03:45:29.061Z,2.67
2022-08-19T03:50:30.861Z,2.65
2022-08-19T03:55:32.663Z,2.58
2022-08-19T04:00:34.406Z,2.40
2022-08-19T04:05:36.125Z,2.90
2022-08-19T04:10:38.709Z,2.95
2022-08-19T04:15:42.988Z,2.88
2022-08-19T04:20:46.722Z,2.45
2022-08-19T04:25:48.451Z,2.85
2022-08-19T04:30:54.306Z,2.50
2022-08-19T04:35:56.149Z,2.25
2022-08-19T04:40:57.874Z,2.50
2022-08-19T04:46:05.068Z,2.70
2022-08-19T04:51:10.608Z,2.63
2022-08-19T04:56:15.224Z,1.67
2022-08-19T05:01:23.916Z,0.50
2022-08-19T05:06:25.695Z,0.10
2022-08-19T05:11:30.992Z,0.07
2022-08-19T05:16:32.828Z,0.20
2022-08-19T05:21:36.146Z,0.30
2022-08-19T05:26:42.537Z,0.10
2022-08-19T05:31:44.634Z,0.63
2022-08-19T05:36:46.915Z,0.10
2022-08-19T05:41:58.490Z,0.17
2022-08-19T05:47:02.252Z,0.52
2022-08-19T05:52:10.395Z,0.20
2022-08-19T05:57:13.314Z,0.32
2022-08-19T06:02:15.238Z,0.30
2022-08-19T06:07:17.073Z,0.43
2022-08-19T06:12:18.838Z,0.50
2022-08-19T06:17:20.887Z,0.25
2022-08-19T06:22:23.010Z,0.60
2022-08-19T06:27:24.888Z,0.40
2022-08-19T06:32:26.624Z,0.30
2022-08-19T06:37:28.325Z,0.70
2022-08-19T06:42:30.382Z,0.30
2022-08-19T06:47:32.631Z,0.60
2022-08-19T06:52:38.291Z,0.43
2022-08-19T06:57:40.265Z,0.52
2022-08-19T07:02:48.176Z,0.20
2022-08-19T07:07:59.690Z,0.30
2022-08-19T07:13:04.685Z,0.63
2022-08-19T07:18:06.572Z,0.47
2022-08-19T07:23:08.342Z,1.20
2022-08-19T07:28:10.108Z,0.30
2022-08-19T07:33:27.954Z,0.70
2022-08-19T07:38:29.749Z,0.35
2022-08-19T07:43:31.489Z,0.17
2022-08-19T07:48:37.171Z,0.30
2022-08-19T07:53:39.943Z,0.50
2022-08-19T07:58:44.560Z,0.50
2022-08-19T08:03:47.117Z,0.35
2022-08-19T08:08:48.873Z,0.40
2022-08-19T08:14:01.199Z,0.70
2022-08-19T08:19:20.430Z,0.40
2022-08-19T08:24:31.823Z,0.40
2022-08-19T08:29:34.911Z,0.63
2022-08-19T08:34:37.056Z,0.50
2022-08-19T08:39:38.853Z,0.35
2022-08-19T08:44:46.754Z,0.50
2022-08-19T08:49:56.794Z,0.10
2022-08-19T08:55:01.674Z,0.20
2022-08-19T09:00:15.058Z,0.50
2022-08-19T09:05:21.992Z,0.40
2022-08-19T09:10:44.207Z,0.20
2022-08-19T09:15:55.001Z,0.20
2022-08-19T09:20:56.764Z,0.20
2022-08-19T09:25:59.045Z,0.10
2022-08-19T09:31:00.866Z,0.00
2022-08-19T09:36:08.840Z,0.00
2022-08-19T09:41:14.308Z,0.10
2022-08-19T09:46:18.251Z,0.10
2022-08-19T09:51:25.654Z,0.10
2022-08-19T09:56:27.432Z,0.05
2022-08-19T10:01:31.696Z,0.20
2022-08-19T10:06:45.589Z,0.20
2022-08-19T10:11:54.471Z,0.10
2022-08-19T10:16:56.873Z,0.43
2022-08-19T10:22:07.364Z,0.10
2022-08-19T10:27:14.101Z,0.10
2022-08-19T10:32:17.910Z,0.03
2022-08-19T10:37:23.828Z,0.10
2022-08-19T10:42:30.520Z,0.20
2022-08-19T10:47:32.922Z,0.05
2022-08-19T10:52:34.720Z,0.40
2022-08-19T10:58:01.417Z,0.45
2022-08-19T11:03:02.751Z,0.43
2022-08-19T11:08:04.493Z,0.40
2022-08-19T11:13:25.947Z,0.10
2022-08-19T11:18:28.161Z,0.10
2022-08-19T11:23:29.868Z,0.13
2022-08-19T11:28:31.663Z,0.20
2022-08-19T11:33:33.379Z,0.10
2022-08-19T11:38:36.232Z,0.40
2022-08-19T11:43:38.209Z,0.20
2022-08-19T11:48:40.592Z,0.43
2022-08-19T11:53:43.239Z,0.20
2022-08-19T11:58:45.342Z,0.22
2022-08-19T12:03:49.646Z,0.43
2022-08-19T12:08:51.394Z,0.10
2022-08-19T12:13:53.689Z,0.10
2022-08-19T12:18:56.598Z,0.10
2022-08-19T12:23:59.902Z,0.00
2022-08-19T12:29:01.651Z,0.38
2022-08-19T12:34:03.404Z,0.03
2022-08-19T12:39:05.157Z,0.20
2022-08-19T12:44:06.894Z,0.10
2022-08-19T12:49:30.822Z,0.20
2022-08-19T12:54:31.845Z,0.60
2022-08-19T12:59:33.537Z,0.20
2022-08-19T13:04:36.386Z,0.17
2022-08-19T13:09:38.402Z,0.57
2022-08-19T13:14:40.968Z,0.10
2022-08-19T13:19:42.700Z,0.20
2022-08-19T13:24:47.273Z,0.50
2022-08-19T13:29:49.324Z,0.30
2022-08-19T13:34:51.068Z,0.50
2022-08-19T13:39:52.829Z,0.40
2022-08-19T13:44:55.176Z,0.43
2022-08-19T13:49:56.934Z,0.57
2022-08-19T13:54:58.657Z,0.60
2022-08-19T14:00:00.567Z,0.60
2022-08-19T14:05:02.304Z,0.70
2022-08-19T14:10:09.398Z,0.35
2022-08-19T14:15:12.946Z,0.67
2022-08-19T14:20:17.747Z,0.40
2022-08-19T14:25:25.566Z,0.60
2022-08-19T14:30:30.016Z,0.87
2022-08-19T14:35:33.358Z,0.63
2022-08-19T14:40:35.072Z,0.90
2022-08-19T14:45:39.171Z,1.00
2022-08-19T14:50:42.621Z,0.73
2022-08-19T14:55:46.519Z,1.00
2022-08-19T15:00:48.231Z,0.83
2022-08-19T15:05:50.714Z,0.60
2022-08-19T15:10:53.163Z,1.00
2022-08-19T15:15:55.373Z,0.80
2022-08-19T15:20:57.134Z,0.70
2022-08-19T15:25:58.835Z,0.57
2022-08-19T15:31:00.558Z,0.80
2022-08-19T15:36:02.355Z,0.60
2022-08-19T15:41:05.801Z,0.50
2022-08-19T15:46:07.502Z,0.30
2022-08-19T15:51:09.219Z,0.40
2022-08-19T15:56:12.188Z,0.50
2022-08-19T16:01:13.997Z,0.80
2022-08-19T16:06:16.467Z,0.60
2022-08-19T16:11:20.107Z,0.88
2022-08-19T16:16:25.224Z,0.67
2022-08-19T16:21:36.219Z,1.00
2022-08-19T16:26:40.424Z,0.70
2022-08-19T16:31:45.600Z,1.00
2022-08-19T16:36:47.791Z,0.63
2022-08-19T16:41:49.621Z,0.73
2022-08-19T16:46:57.256Z,1.20
2022-08-19T16:52:00.744Z,0.57
2022-08-19T16:57:02.589Z,0.77
2022-08-19T17:02:04.527Z,0.53
2022-08-19T17:07:06.289Z,0.70
2022-08-19T17:12:08.295Z,0.77
2022-08-19T17:17:10.022Z,0.50
2022-08-19T17:22:11.861Z,0.60
2022-08-19T17:27:13.594Z,0.60
2022-08-19T17:32:15.361Z,0.40
2022-08-19T17:37:17.113Z,0.80
2022-08-19T17:42:18.844Z,0.70
2022-08-19T17:47:20.587Z,0.60
2022-08-19T17:52:22.310Z,1.00
2022-08-19T17:57:24.159Z,0.77
2022-08-19T18:02:25.958Z,0.50
2022-08-19T18:07:27.696Z,0.63
2022-08-19T18:12:29.396Z,0.50
2022-08-19T18:17:31.087Z,0.68
2022-08-19T18:22:37.072Z,0.80
2022-08-19T18:27:39.126Z,1.33
2022-08-19T18:32:41.398Z,1.38
2022-08-19T18:37:44.688Z,2.33
2022-08-19T18:42:46.744Z,2.40
2022-08-19T18:47:48.535Z,2.57
2022-08-19T18:52:50.394Z,1.90
2022-08-19T18:57:52.128Z,2.25
2022-08-19T19:02:55.780Z,2.13
2022-08-19T19:07:57.503Z,1.60
2022-08-19T19:12:59.248Z,2.47
2022-08-19T19:18:01.128Z,1.70
2022-08-19T19:23:04.130Z,1.40
2022-08-19T19:28:05.850Z,1.90
2022-08-19T19:33:07.590Z,1.98
2022-08-19T19:38:09.341Z,2.00
2022-08-19T19:43:11.257Z,2.30
2022-08-19T19:48:12.995Z,2.22
2022-08-19T19:53:14.733Z,2.00
2022-08-19T19:58:16.467Z,1.85
2022-08-19T20:03:22.926Z,1.70
2022-08-19T20:08:28.348Z,1.50
2022-08-19T20:13:30.997Z,1.50
2022-08-19T20:18:32.728Z,1.95
2022-08-19T20:23:34.542Z,2.28
2022-08-19T20:28:36.311Z,2.45
2022-08-19T20:33:39.006Z,1.83
2022-08-19T20:38:40.992Z,2.00
2022-08-19T20:43:43.038Z,1.80
2022-08-19T20:48:45.313Z,1.95
2022-08-19T20:53:47.041Z,2.22
2022-08-19T20:58:53.474Z,1.93
2022-08-19T21:03:57.318Z,2.20
2022-08-19T21:08:59.030Z,2.15
2022-08-19T21:14:00.741Z,2.47
2022-08-19T21:19:02.535Z,2.67
2022-08-19T21:24:04.782Z,2.20
2022-08-19T21:29:06.939Z,2.30
2022-08-19T21:34:08.675Z,1.87
2022-08-19T21:39:10.397Z,1.75
2022-08-19T21:44:12.274Z,1.45
2022-08-19T21:49:14.083Z,1.92
2022-08-19T21:54:15.877Z,1.60
2022-08-19T21:59:17.609Z,1.52
2022-08-19T22:04:19.843Z,1.23
2022-08-19T22:09:21.593Z,1.13
2022-08-19T22:14:23.376Z,1.50
2022-08-19T22:19:25.079Z,1.27
2022-08-19T22:24:26.800Z,1.10
2022-08-19T22:29:33.660Z,0.95
2022-08-19T22:34:36.033Z,1.50
2022-08-19T22:39:37.790Z,1.10
2022-08-19T22:44:39.621Z,1.42
2022-08-19T22:49:41.314Z,0.90
2022-08-19T22:54:44.621Z,0.80
2022-08-19T22:59:50.817Z,0.90
2022-08-19T23:04:53.206Z,0.82
2022-08-19T23:09:54.911Z,1.07
2022-08-19T23:15:15.999Z,1.00
2022-08-19T23:20:17.828Z,0.80
2022-08-19T23:25:23.078Z,1.20
2022-08-19T23:30:24.963Z,1.10
2022-08-19T23:35:33.567Z,0.90
2022-08-19T23:40:37.094Z,1.13
2022-08-19T23:45:40.650Z,0.80
2022-08-19T23:50:43.912Z,1.00
2022-08-19T23:55:47.521Z,0.90
